sensor_id;sensor_type;location;lat;lon;timestamp;P1;durP1;ratioP1;P2;durP2;ratioP2
67191;SDS011;54120;53.504;49.426;2022-09-29T00:02:01;3.72;;;3.28;;
67191;SDS011;54120;53.504;49.426;2022-09-29T00:04:27;4.05;;;3.17;;
67191;SDS011;54120;53.504;49.426;2022-09-29T00:06:53;5.60;;;3.03;;
67191;SDS011;54120;53.504;49.426;2022-09-29T00:09:20;5.65;;;3.38;;
67191;SDS011;54120;53.504;49.426;2022-09-29T00:11:46;5.95;;;2.75;;
67191;SDS011;54120;53.504;49.426;2022-09-29T00:14:12;4.40;;;3.20;;
67191;SDS011;54120;53.504;49.426;2022-09-29T00:16:38;6.25;;;3.25;;
67191;SDS011;54120;53.504;49.426;2022-09-29T00:19:04;7.18;;;3.13;;
67191;SDS011;54120;53.504;49.426;2022-09-29T00:21:30;4.35;;;3.08;;
67191;SDS011;54120;53.504;49.426;2022-09-29T00:23:59;3.40;;;3.10;;
67191;SDS011;54120;53.504;49.426;2022-09-29T00:26:25;3.45;;;2.70;;
67191;SDS011;54120;53.504;49.426;2022-09-29T00:28:52;3.92;;;3.22;;
67191;SDS011;54120;53.504;49.426;2022-09-29T00:31:24;7.80;;;3.20;;
67191;SDS011;54120;53.504;49.426;2022-09-29T00:33:52;3.72;;;3.20;;
67191;SDS011;54120;53.504;49.426;2022-09-29T00:36:19;11.48;;;6.70;;
67191;SDS011;54120;53.504;49.426;2022-09-29T00:38:46;3.63;;;2.90;;
67191;SDS011;54120;53.504;49.426;2022-09-29T00:41:14;5.85;;;3.13;;
67191;SDS011;54120;53.504;49.426;2022-09-29T00:43:53;4.85;;;2.97;;
67191;SDS011;54120;53.504;49.426;2022-09-29T00:46:23;4.95;;;2.90;;
67191;SDS011;54120;53.504;49.426;2022-09-29T00:48:51;3.55;;;3.13;;
67191;SDS011;54120;53.504;49.426;2022-09-29T00:51:19;4.28;;;3.10;;
67191;SDS011;54120;53.504;49.426;2022-09-29T00:53:46;4.22;;;3.00;;
67191;SDS011;54120;53.504;49.426;2022-09-29T00:56:14;8.15;;;3.47;;
67191;SDS011;54120;53.504;49.426;2022-09-29T00:58:52;3.40;;;3.10;;
67191;SDS011;54120;53.504;49.426;2022-09-29T01:01:26;4.63;;;3.00;;
67191;SDS011;54120;53.504;49.426;2022-09-29T01:03:56;7.30;;;3.03;;
67191;SDS011;54120;53.504;49.426;2022-09-29T01:06:35;2.97;;;2.63;;
67191;SDS011;54120;53.504;49.426;2022-09-29T01:09:51;4.28;;;3.20;;
67191;SDS011;54120;53.504;49.426;2022-09-29T01:11:59;5.35;;;2.92;;
67191;SDS011;54120;53.504;49.426;2022-09-29T01:14:27;5.68;;;2.80;;
67191;SDS011;54120;53.504;49.426;2022-09-29T01:16:54;6.55;;;2.92;;
67191;SDS011;54120;53.504;49.426;2022-09-29T01:21:59;3.42;;;3.00;;
67191;SDS011;54120;53.504;49.426;2022-09-29T01:38:03;7.63;;;2.55;;
67191;SDS011;54120;53.504;49.426;2022-09-29T01:40:53;4.18;;;2.63;;
67191;SDS011;54120;53.504;49.426;2022-09-29T01:43:44;3.42;;;2.70;;
67191;SDS011;54120;53.504;49.426;2022-09-29T01:48:51;4.70;;;2.95;;
67191;SDS011;54120;53.504;49.426;2022-09-29T01:51:26;6.35;;;2.85;;
67191;SDS011;54120;53.504;49.426;2022-09-29T01:53:58;5.40;;;3.10;;
67191;SDS011;54120;53.504;49.426;2022-09-29T01:56:36;4.03;;;3.10;;
67191;SDS011;54120;53.504;49.426;2022-09-29T01:59:10;3.75;;;2.90;;
67191;SDS011;54120;53.504;49.426;2022-09-29T02:01:42;4.15;;;2.80;;
67191;SDS011;54120;53.504;49.426;2022-09-29T02:04:14;3.67;;;3.00;;
67191;SDS011;54120;53.504;49.426;2022-09-29T02:06:50;4.18;;;2.80;;
67191;SDS011;54120;53.504;49.426;2022-09-29T02:09:24;8.00;;;2.90;;
67191;SDS011;54120;53.504;49.426;2022-09-29T02:11:57;5.00;;;3.50;;
67191;SDS011;54120;53.504;49.426;2022-09-29T02:14:28;4.05;;;3.00;;
67191;SDS011;54120;53.504;49.426;2022-09-29T02:17:03;4.82;;;3.20;;
67191;SDS011;54120;53.504;49.426;2022-09-29T02:19:44;6.07;;;3.33;;
67191;SDS011;54120;53.504;49.426;2022-09-29T02:22:12;4.25;;;2.95;;
67191;SDS011;54120;53.504;49.426;2022-09-29T02:24:39;4.60;;;3.33;;
67191;SDS011;54120;53.504;49.426;2022-09-29T02:27:06;3.53;;;2.95;;
67191;SDS011;54120;53.504;49.426;2022-09-29T02:29:33;8.25;;;3.20;;
67191;SDS011;54120;53.504;49.426;2022-09-29T02:32:01;4.93;;;2.75;;
67191;SDS011;54120;53.504;49.426;2022-09-29T02:34:32;6.22;;;3.85;;
67191;SDS011;54120;53.504;49.426;2022-09-29T02:37:13;6.70;;;3.00;;
67191;SDS011;54120;53.504;49.426;2022-09-29T02:43:07;5.93;;;3.22;;
67191;SDS011;54120;53.504;49.426;2022-09-29T03:01:33;3.38;;;2.78;;
67191;SDS011;54120;53.504;49.426;2022-09-29T03:03:59;4.57;;;4.18;;
67191;SDS011;54120;53.504;49.426;2022-09-29T03:06:26;4.72;;;3.22;;
67191;SDS011;54120;53.504;49.426;2022-09-29T03:08:52;6.45;;;3.13;;
67191;SDS011;54120;53.504;49.426;2022-09-29T03:11:18;5.30;;;3.22;;
67191;SDS011;54120;53.504;49.426;2022-09-29T03:13:45;7.80;;;3.40;;
67191;SDS011;54120;53.504;49.426;2022-09-29T03:16:11;3.58;;;2.78;;
67191;SDS011;54120;53.504;49.426;2022-09-29T03:18:37;5.03;;;3.50;;
67191;SDS011;54120;53.504;49.426;2022-09-29T03:21:03;6.50;;;3.72;;
67191;SDS011;54120;53.504;49.426;2022-09-29T03:23:29;3.80;;;3.40;;
67191;SDS011;54120;53.504;49.426;2022-09-29T03:25:55;5.65;;;3.22;;
67191;SDS011;54120;53.504;49.426;2022-09-29T03:28:21;4.60;;;3.38;;
67191;SDS011;54120;53.504;49.426;2022-09-29T03:30:47;7.22;;;3.53;;
67191;SDS011;54120;53.504;49.426;2022-09-29T03:33:14;4.60;;;3.25;;
67191;SDS011;54120;53.504;49.426;2022-09-29T03:35:40;5.75;;;3.47;;
67191;SDS011;54120;53.504;49.426;2022-09-29T03:38:06;4.72;;;3.42;;
67191;SDS011;54120;53.504;49.426;2022-09-29T03:40:32;4.97;;;3.30;;
67191;SDS011;54120;53.504;49.426;2022-09-29T03:42:58;3.95;;;3.58;;
67191;SDS011;54120;53.504;49.426;2022-09-29T03:45:24;6.90;;;3.72;;
67191;SDS011;54120;53.504;49.426;2022-09-29T03:47:50;4.47;;;3.70;;
67191;SDS011;54120;53.504;49.426;2022-09-29T03:50:16;11.98;;;3.92;;
67191;SDS011;54120;53.504;49.426;2022-09-29T03:52:42;4.95;;;3.55;;
67191;SDS011;54120;53.504;49.426;2022-09-29T03:55:08;3.85;;;3.55;;
67191;SDS011;54120;53.504;49.426;2022-09-29T03:57:34;4.45;;;3.70;;
67191;SDS011;54120;53.504;49.426;2022-09-29T04:00:00;4.10;;;3.45;;
67191;SDS011;54120;53.504;49.426;2022-09-29T04:02:27;4.22;;;3.35;;
67191;SDS011;54120;53.504;49.426;2022-09-29T04:04:53;7.80;;;4.00;;
67191;SDS011;54120;53.504;49.426;2022-09-29T04:07:19;4.15;;;3.33;;
67191;SDS011;54120;53.504;49.426;2022-09-29T04:09:45;5.03;;;3.58;;
67191;SDS011;54120;53.504;49.426;2022-09-29T04:12:11;5.50;;;3.78;;
67191;SDS011;54120;53.504;49.426;2022-09-29T04:14:37;5.00;;;3.58;;
67191;SDS011;54120;53.504;49.426;2022-09-29T04:17:03;7.63;;;3.80;;
67191;SDS011;54120;53.504;49.426;2022-09-29T04:19:29;5.40;;;3.67;;
67191;SDS011;54120;53.504;49.426;2022-09-29T04:21:55;6.43;;;4.15;;
67191;SDS011;54120;53.504;49.426;2022-09-29T04:24:22;7.28;;;3.67;;
67191;SDS011;54120;53.504;49.426;2022-09-29T04:26:48;7.30;;;3.60;;
67191;SDS011;54120;53.504;49.426;2022-09-29T04:29:14;7.70;;;3.35;;
67191;SDS011;54120;53.504;49.426;2022-09-29T04:31:40;7.78;;;3.53;;
67191;SDS011;54120;53.504;49.426;2022-09-29T04:34:06;6.45;;;4.00;;
67191;SDS011;54120;53.504;49.426;2022-09-29T04:36:32;6.53;;;3.90;;
67191;SDS011;54120;53.504;49.426;2022-09-29T04:38:58;10.38;;;4.03;;
67191;SDS011;54120;53.504;49.426;2022-09-29T04:41:24;8.40;;;3.70;;
67191;SDS011;54120;53.504;49.426;2022-09-29T04:43:50;5.78;;;3.83;;
67191;SDS011;54120;53.504;49.426;2022-09-29T04:46:16;7.95;;;4.07;;
67191;SDS011;54120;53.504;49.426;2022-09-29T04:48:42;6.88;;;4.45;;
67191;SDS011;54120;53.504;49.426;2022-09-29T04:51:09;4.72;;;3.90;;
67191;SDS011;54120;53.504;49.426;2022-09-29T04:53:35;4.95;;;3.95;;
67191;SDS011;54120;53.504;49.426;2022-09-29T04:56:05;7.18;;;4.45;;
67191;SDS011;54120;53.504;49.426;2022-09-29T04:58:33;6.53;;;4.57;;
67191;SDS011;54120;53.504;49.426;2022-09-29T05:01:09;7.75;;;4.78;;
67191;SDS011;54120;53.504;49.426;2022-09-29T05:03:40;5.70;;;5.10;;
67191;SDS011;54120;53.504;49.426;2022-09-29T05:06:06;6.00;;;5.40;;
67191;SDS011;54120;53.504;49.426;2022-09-29T05:08:34;10.63;;;5.40;;
67191;SDS011;54120;53.504;49.426;2022-09-29T05:11:07;6.60;;;5.90;;
67191;SDS011;54120;53.504;49.426;2022-09-29T05:13:35;8.20;;;5.88;;
67191;SDS011;54120;53.504;49.426;2022-09-29T05:16:02;8.80;;;5.88;;
67191;SDS011;54120;53.504;49.426;2022-09-29T05:18:29;11.32;;;6.10;;
67191;SDS011;54120;53.504;49.426;2022-09-29T05:20:55;9.10;;;5.63;;
67191;SDS011;54120;53.504;49.426;2022-09-29T05:23:27;9.48;;;5.88;;
67191;SDS011;54120;53.504;49.426;2022-09-29T05:25:53;7.28;;;5.82;;
67191;SDS011;54120;53.504;49.426;2022-09-29T05:28:19;8.13;;;5.75;;
67191;SDS011;54120;53.504;49.426;2022-09-29T05:30:45;6.10;;;5.47;;
67191;SDS011;54120;53.504;49.426;2022-09-29T05:33:12;6.10;;;5.50;;
67191;SDS011;54120;53.504;49.426;2022-09-29T05:35:38;7.60;;;5.68;;
67191;SDS011;54120;53.504;49.426;2022-09-29T05:38:04;7.00;;;6.30;;
67191;SDS011;54120;53.504;49.426;2022-09-29T05:40:30;11.48;;;5.88;;
67191;SDS011;54120;53.504;49.426;2022-09-29T05:42:57;8.85;;;6.00;;
67191;SDS011;54120;53.504;49.426;2022-09-29T05:45:24;6.57;;;5.97;;
67191;SDS011;54120;53.504;49.426;2022-09-29T05:47:51;6.90;;;6.20;;
67191;SDS011;54120;53.504;49.426;2022-09-29T05:50:19;7.65;;;5.75;;
67191;SDS011;54120;53.504;49.426;2022-09-29T05:52:46;7.38;;;6.10;;
67191;SDS011;54120;53.504;49.426;2022-09-29T05:55:14;7.15;;;6.20;;
67191;SDS011;54120;53.504;49.426;2022-09-29T05:57:40;7.03;;;5.97;;
67191;SDS011;54120;53.504;49.426;2022-09-29T06:00:07;7.30;;;5.85;;
67191;SDS011;54120;53.504;49.426;2022-09-29T06:02:33;8.70;;;5.85;;
67191;SDS011;54120;53.504;49.426;2022-09-29T06:04:59;9.38;;;5.85;;
67191;SDS011;54120;53.504;49.426;2022-09-29T06:07:26;7.82;;;5.90;;
67191;SDS011;54120;53.504;49.426;2022-09-29T06:09:52;6.13;;;4.82;;
67191;SDS011;54120;53.504;49.426;2022-09-29T06:12:18;6.45;;;5.85;;
67191;SDS011;54120;53.504;49.426;2022-09-29T06:14:44;5.68;;;5.07;;
67191;SDS011;54120;53.504;49.426;2022-09-29T06:17:10;6.47;;;5.60;;
67191;SDS011;54120;53.504;49.426;2022-09-29T06:19:36;7.20;;;6.50;;
67191;SDS011;54120;53.504;49.426;2022-09-29T06:22:02;5.80;;;5.30;;
67191;SDS011;54120;53.504;49.426;2022-09-29T06:24:28;8.30;;;5.28;;
67191;SDS011;54120;53.504;49.426;2022-09-29T06:26:54;6.80;;;5.50;;
67191;SDS011;54120;53.504;49.426;2022-09-29T06:29:20;6.82;;;5.10;;
67191;SDS011;54120;53.504;49.426;2022-09-29T06:31:47;7.22;;;4.60;;
67191;SDS011;54120;53.504;49.426;2022-09-29T06:34:14;6.18;;;5.18;;
67191;SDS011;54120;53.504;49.426;2022-09-29T06:36:41;4.47;;;4.18;;
67191;SDS011;54120;53.504;49.426;2022-09-29T06:39:27;4.68;;;3.85;;
67191;SDS011;54120;53.504;49.426;2022-09-29T06:41:54;5.75;;;4.50;;
67191;SDS011;54120;53.504;49.426;2022-09-29T06:44:22;7.93;;;4.70;;
67191;SDS011;54120;53.504;49.426;2022-09-29T06:46:50;4.85;;;4.07;;
67191;SDS011;54120;53.504;49.426;2022-09-29T06:49:17;7.60;;;4.18;;
67191;SDS011;54120;53.504;49.426;2022-09-29T06:51:44;4.00;;;3.70;;
67191;SDS011;54120;53.504;49.426;2022-09-29T06:54:16;5.97;;;4.10;;
67191;SDS011;54120;53.504;49.426;2022-09-29T06:56:48;3.92;;;3.50;;
67191;SDS011;54120;53.504;49.426;2022-09-29T06:59:15;3.97;;;3.40;;
67191;SDS011;54120;53.504;49.426;2022-09-29T07:01:42;3.50;;;3.20;;
67191;SDS011;54120;53.504;49.426;2022-09-29T07:04:08;3.42;;;3.13;;
67191;SDS011;54120;53.504;49.426;2022-09-29T07:06:34;3.20;;;2.90;;
67191;SDS011;54120;53.504;49.426;2022-09-29T07:09:00;3.17;;;2.88;;
67191;SDS011;54120;53.504;49.426;2022-09-29T07:11:27;4.32;;;3.17;;
67191;SDS011;54120;53.504;49.426;2022-09-29T07:13:53;3.10;;;2.38;;
67191;SDS011;54120;53.504;49.426;2022-09-29T07:16:20;7.45;;;2.83;;
67191;SDS011;54120;53.504;49.426;2022-09-29T07:18:50;2.38;;;2.17;;
67191;SDS011;54120;53.504;49.426;2022-09-29T07:21:17;2.95;;;2.10;;
67191;SDS011;54120;53.504;49.426;2022-09-29T07:23:45;3.20;;;2.10;;
67191;SDS011;54120;53.504;49.426;2022-09-29T07:26:13;2.28;;;2.15;;
67191;SDS011;54120;53.504;49.426;2022-09-29T07:28:44;2.13;;;1.90;;
67191;SDS011;54120;53.504;49.426;2022-09-29T07:31:15;2.75;;;2.00;;
67191;SDS011;54120;53.504;49.426;2022-09-29T07:33:44;2.88;;;2.05;;
67191;SDS011;54120;53.504;49.426;2022-09-29T07:36:12;3.38;;;2.13;;
67191;SDS011;54120;53.504;49.426;2022-09-29T07:38:39;2.22;;;2.08;;
67191;SDS011;54120;53.504;49.426;2022-09-29T07:41:06;2.33;;;1.58;;
67191;SDS011;54120;53.504;49.426;2022-09-29T07:43:34;1.90;;;1.80;;
67191;SDS011;54120;53.504;49.426;2022-09-29T07:46:01;1.92;;;1.42;;
67191;SDS011;54120;53.504;49.426;2022-09-29T07:48:27;1.45;;;1.40;;
67191;SDS011;54120;53.504;49.426;2022-09-29T07:51:02;1.60;;;1.50;;
67191;SDS011;54120;53.504;49.426;2022-09-29T07:53:33;1.83;;;1.40;;
67191;SDS011;54120;53.504;49.426;2022-09-29T07:56:01;1.95;;;1.48;;
67191;SDS011;54120;53.504;49.426;2022-09-29T07:58:32;2.53;;;1.30;;
67191;SDS011;54120;53.504;49.426;2022-09-29T08:00:59;1.77;;;1.40;;
67191;SDS011;54120;53.504;49.426;2022-09-29T08:03:26;2.28;;;1.40;;
67191;SDS011;54120;53.504;49.426;2022-09-29T08:05:54;1.50;;;1.40;;
67191;SDS011;54120;53.504;49.426;2022-09-29T08:08:22;1.48;;;1.20;;
67191;SDS011;54120;53.504;49.426;2022-09-29T08:10:48;1.10;;;1.10;;
67191;SDS011;54120;53.504;49.426;2022-09-29T08:13:14;1.10;;;1.00;;
67191;SDS011;54120;53.504;49.426;2022-09-29T08:15:40;5.45;;;1.38;;
67191;SDS011;54120;53.504;49.426;2022-09-29T08:18:06;1.02;;;1.02;;
67191;SDS011;54120;53.504;49.426;2022-09-29T08:20:34;1.00;;;1.00;;
67191;SDS011;54120;53.504;49.426;2022-09-29T08:23:01;1.00;;;1.00;;
67191;SDS011;54120;53.504;49.426;2022-09-29T08:25:27;1.35;;;1.25;;
67191;SDS011;54120;53.504;49.426;2022-09-29T08:27:53;1.20;;;1.00;;
67191;SDS011;54120;53.504;49.426;2022-09-29T08:30:19;1.33;;;1.00;;
67191;SDS011;54120;53.504;49.426;2022-09-29T08:32:50;2.05;;;1.08;;
67191;SDS011;54120;53.504;49.426;2022-09-29T08:35:19;0.88;;;0.88;;
67191;SDS011;54120;53.504;49.426;2022-09-29T08:37:45;1.50;;;1.00;;
67191;SDS011;54120;53.504;49.426;2022-09-29T08:40:13;0.90;;;0.90;;
67191;SDS011;54120;53.504;49.426;2022-09-29T08:42:49;1.00;;;1.00;;
67191;SDS011;54120;53.504;49.426;2022-09-29T08:45:26;1.00;;;1.00;;
67191;SDS011;54120;53.504;49.426;2022-09-29T08:48:00;1.00;;;1.00;;
67191;SDS011;54120;53.504;49.426;2022-09-29T08:50:32;0.90;;;0.90;;
67191;SDS011;54120;53.504;49.426;2022-09-29T08:53:08;1.00;;;1.00;;
67191;SDS011;54120;53.504;49.426;2022-09-29T08:55:40;1.10;;;1.10;;
67191;SDS011;54120;53.504;49.426;2022-09-29T08:58:11;0.90;;;0.90;;
67191;SDS011;54120;53.504;49.426;2022-09-29T09:00:52;1.75;;;0.90;;
67191;SDS011;54120;53.504;49.426;2022-09-29T09:07:37;1.20;;;1.10;;
67191;SDS011;54120;53.504;49.426;2022-09-29T09:10:16;5.05;;;1.00;;
67191;SDS011;54120;53.504;49.426;2022-09-29T09:12:47;1.10;;;1.10;;
67191;SDS011;54120;53.504;49.426;2022-09-29T09:26:10;1.02;;;1.02;;
67191;SDS011;54120;53.504;49.426;2022-09-29T09:28:48;0.88;;;0.88;;
67191;SDS011;54120;53.504;49.426;2022-09-29T09:31:59;2.15;;;1.05;;
67191;SDS011;54120;53.504;49.426;2022-09-29T09:37:07;3.30;;;1.20;;
67191;SDS011;54120;53.504;49.426;2022-09-29T09:39:43;1.10;;;1.05;;
67191;SDS011;54120;53.504;49.426;2022-09-29T09:42:14;1.38;;;1.25;;
67191;SDS011;54120;53.504;49.426;2022-09-29T09:44:49;1.08;;;0.90;;
67191;SDS011;54120;53.504;49.426;2022-09-29T09:49:47;1.77;;;1.45;;
67191;SDS011;54120;53.504;49.426;2022-09-29T09:52:21;1.52;;;1.10;;
67191;SDS011;54120;53.504;49.426;2022-09-29T09:55:00;1.10;;;1.10;;
67191;SDS011;54120;53.504;49.426;2022-09-29T10:01:02;1.67;;;0.95;;
67191;SDS011;54120;53.504;49.426;2022-09-29T10:03:31;2.28;;;1.10;;
67191;SDS011;54120;53.504;49.426;2022-09-29T10:05:58;1.05;;;1.05;;
67191;SDS011;54120;53.504;49.426;2022-09-29T10:08:37;5.38;;;1.48;;
67191;SDS011;54120;53.504;49.426;2022-09-29T10:11:23;1.20;;;1.20;;
67191;SDS011;54120;53.504;49.426;2022-09-29T10:13:56;2.65;;;1.20;;
67191;SDS011;54120;53.504;49.426;2022-09-29T10:16:31;1.40;;;1.30;;
67191;SDS011;54120;53.504;49.426;2022-09-29T10:19:08;1.23;;;1.13;;
67191;SDS011;54120;53.504;49.426;2022-09-29T10:21:39;2.72;;;1.48;;
67191;SDS011;54120;53.504;49.426;2022-09-29T10:26:58;1.40;;;1.17;;
67191;SDS011;54120;53.504;49.426;2022-09-29T10:32:10;1.35;;;1.25;;
67191;SDS011;54120;53.504;49.426;2022-09-29T10:34:49;1.35;;;1.25;;
67191;SDS011;54120;53.504;49.426;2022-09-29T10:37:22;1.13;;;1.10;;
67191;SDS011;54120;53.504;49.426;2022-09-29T10:40:03;2.90;;;1.40;;
67191;SDS011;54120;53.504;49.426;2022-09-29T10:42:39;1.98;;;1.40;;
67191;SDS011;54120;53.504;49.426;2022-09-29T10:45:18;1.33;;;1.20;;
67191;SDS011;54120;53.504;49.426;2022-09-29T10:50:48;1.75;;;1.60;;
67191;SDS011;54120;53.504;49.426;2022-09-29T10:53:24;1.33;;;1.30;;
67191;SDS011;54120;53.504;49.426;2022-09-29T10:56:15;5.65;;;1.40;;
67191;SDS011;54120;53.504;49.426;2022-09-29T10:58:44;1.60;;;1.50;;
67191;SDS011;54120;53.504;49.426;2022-09-29T11:03:55;2.55;;;1.70;;
67191;SDS011;54120;53.504;49.426;2022-09-29T11:06:31;1.75;;;1.65;;
67191;SDS011;54120;53.504;49.426;2022-09-29T11:09:21;2.67;;;1.80;;
67191;SDS011;54120;53.504;49.426;2022-09-29T11:11:56;5.95;;;1.90;;
67191;SDS011;54120;53.504;49.426;2022-09-29T11:16:57;3.10;;;2.05;;
67191;SDS011;54120;53.504;49.426;2022-09-29T11:19:25;3.97;;;1.98;;
67191;SDS011;54120;53.504;49.426;2022-09-29T11:30:14;4.40;;;2.15;;
67191;SDS011;54120;53.504;49.426;2022-09-29T11:36:21;2.20;;;2.00;;
67191;SDS011;54120;53.504;49.426;2022-09-29T11:58:46;6.28;;;2.90;;
67191;SDS011;54120;53.504;49.426;2022-09-29T12:01:29;5.03;;;2.55;;
67191;SDS011;54120;53.504;49.426;2022-09-29T12:04:12;4.18;;;3.55;;
67191;SDS011;54120;53.504;49.426;2022-09-29T12:15:13;4.88;;;3.65;;
67191;SDS011;54120;53.504;49.426;2022-09-29T12:17:48;4.53;;;3.00;;
67191;SDS011;54120;53.504;49.426;2022-09-29T12:20:19;4.88;;;3.60;;
67191;SDS011;54120;53.504;49.426;2022-09-29T12:22:49;7.05;;;3.55;;
67191;SDS011;54120;53.504;49.426;2022-09-29T12:25:19;7.97;;;4.25;;
67191;SDS011;54120;53.504;49.426;2022-09-29T12:27:50;6.93;;;3.67;;
67191;SDS011;54120;53.504;49.426;2022-09-29T12:30:26;6.03;;;3.97;;
67191;SDS011;54120;53.504;49.426;2022-09-29T12:33:04;5.00;;;4.05;;
67191;SDS011;54120;53.504;49.426;2022-09-29T12:35:45;4.55;;;3.70;;
67191;SDS011;54120;53.504;49.426;2022-09-29T12:38:50;6.28;;;4.25;;
67191;SDS011;54120;53.504;49.426;2022-09-29T12:41:22;8.07;;;4.75;;
67191;SDS011;54120;53.504;49.426;2022-09-29T12:43:57;8.32;;;5.28;;
67191;SDS011;54120;53.504;49.426;2022-09-29T12:46:48;7.88;;;5.30;;
67191;SDS011;54120;53.504;49.426;2022-09-29T12:49:42;7.28;;;5.15;;
67191;SDS011;54120;53.504;49.426;2022-09-29T12:52:19;7.45;;;5.50;;
67191;SDS011;54120;53.504;49.426;2022-09-29T12:57:25;12.48;;;5.15;;
67191;SDS011;54120;53.504;49.426;2022-09-29T13:22:41;18.40;;;8.07;;
67191;SDS011;54120;53.504;49.426;2022-09-29T13:27:32;12.18;;;7.50;;
67191;SDS011;54120;53.504;49.426;2022-09-29T13:32:53;14.05;;;7.28;;
67191;SDS011;54120;53.504;49.426;2022-09-29T13:35:27;16.77;;;7.72;;
67191;SDS011;54120;53.504;49.426;2022-09-29T13:37:55;12.98;;;8.20;;
67191;SDS011;54120;53.504;49.426;2022-09-29T13:40:28;12.20;;;8.15;;
67191;SDS011;54120;53.504;49.426;2022-09-29T13:42:59;11.73;;;7.30;;
67191;SDS011;54120;53.504;49.426;2022-09-29T14:00:56;15.45;;;7.35;;
67191;SDS011;54120;53.504;49.426;2022-09-29T14:06:22;13.68;;;7.88;;
67191;SDS011;54120;53.504;49.426;2022-09-29T14:09:00;14.63;;;7.55;;
67191;SDS011;54120;53.504;49.426;2022-09-29T14:11:38;11.55;;;7.30;;
67191;SDS011;54120;53.504;49.426;2022-09-29T14:14:12;14.45;;;8.13;;
67191;SDS011;54120;53.504;49.426;2022-09-29T14:17:08;10.80;;;7.65;;
67191;SDS011;54120;53.504;49.426;2022-09-29T14:19:48;11.75;;;7.55;;
67191;SDS011;54120;53.504;49.426;2022-09-29T14:27:42;17.23;;;8.25;;
67191;SDS011;54120;53.504;49.426;2022-09-29T14:30:17;16.30;;;9.10;;
67191;SDS011;54120;53.504;49.426;2022-09-29T14:32:58;14.93;;;8.60;;
67191;SDS011;54120;53.504;49.426;2022-09-29T14:35:29;17.45;;;8.35;;
67191;SDS011;54120;53.504;49.426;2022-09-29T14:38:19;15.90;;;9.25;;
67191;SDS011;54120;53.504;49.426;2022-09-29T14:46:37;17.92;;;8.88;;
67191;SDS011;54120;53.504;49.426;2022-09-29T14:49:51;15.63;;;9.15;;
67191;SDS011;54120;53.504;49.426;2022-09-29T14:55:56;13.55;;;7.75;;
67191;SDS011;54120;53.504;49.426;2022-09-29T15:03:51;17.00;;;10.02;;
67191;SDS011;54120;53.504;49.426;2022-09-29T15:06:19;13.07;;;8.90;;
67191;SDS011;54120;53.504;49.426;2022-09-29T15:08:54;15.32;;;9.13;;
67191;SDS011;54120;53.504;49.426;2022-09-29T15:14:01;20.85;;;7.78;;
67191;SDS011;54120;53.504;49.426;2022-09-29T15:16:52;13.55;;;8.10;;
67191;SDS011;54120;53.504;49.426;2022-09-29T15:25:19;15.00;;;8.80;;
67191;SDS011;54120;53.504;49.426;2022-09-29T15:27:55;15.82;;;7.90;;
67191;SDS011;54120;53.504;49.426;2022-09-29T15:30:26;14.90;;;8.80;;
67191;SDS011;54120;53.504;49.426;2022-09-29T15:32:54;17.10;;;8.55;;
67191;SDS011;54120;53.504;49.426;2022-09-29T15:35:38;20.77;;;8.98;;
67191;SDS011;54120;53.504;49.426;2022-09-29T15:40:35;19.05;;;9.00;;
67191;SDS011;54120;53.504;49.426;2022-09-29T15:43:02;20.13;;;9.18;;
67191;SDS011;54120;53.504;49.426;2022-09-29T15:45:47;22.45;;;9.77;;
67191;SDS011;54120;53.504;49.426;2022-09-29T15:48:19;22.98;;;9.60;;
67191;SDS011;54120;53.504;49.426;2022-09-29T15:50:45;19.27;;;10.02;;
67191;SDS011;54120;53.504;49.426;2022-09-29T15:53:11;20.02;;;9.32;;
67191;SDS011;54120;53.504;49.426;2022-09-29T15:55:37;22.65;;;10.20;;
67191;SDS011;54120;53.504;49.426;2022-09-29T16:01:01;23.95;;;9.65;;
67191;SDS011;54120;53.504;49.426;2022-09-29T16:03:38;20.75;;;11.05;;
67191;SDS011;54120;53.504;49.426;2022-09-29T16:06:27;22.60;;;9.90;;
67191;SDS011;54120;53.504;49.426;2022-09-29T16:09:03;20.08;;;9.65;;
67191;SDS011;54120;53.504;49.426;2022-09-29T16:11:33;18.83;;;9.23;;
67191;SDS011;54120;53.504;49.426;2022-09-29T16:14:05;19.08;;;9.20;;
67191;SDS011;54120;53.504;49.426;2022-09-29T16:16:40;21.00;;;9.73;;
67191;SDS011;54120;53.504;49.426;2022-09-29T16:19:12;21.08;;;9.30;;
67191;SDS011;54120;53.504;49.426;2022-09-29T16:21:53;16.73;;;9.15;;
67191;SDS011;54120;53.504;49.426;2022-09-29T16:24:22;28.92;;;10.65;;
67191;SDS011;54120;53.504;49.426;2022-09-29T16:26:52;16.33;;;9.27;;
67191;SDS011;54120;53.504;49.426;2022-09-29T16:41:07;20.15;;;10.63;;
67191;SDS011;54120;53.504;49.426;2022-09-29T16:44:53;22.33;;;12.05;;
67191;SDS011;54120;53.504;49.426;2022-09-29T16:47:19;21.92;;;10.48;;
67191;SDS011;54120;53.504;49.426;2022-09-29T16:49:59;20.98;;;10.88;;
67191;SDS011;54120;53.504;49.426;2022-09-29T16:52:48;19.05;;;10.05;;
67191;SDS011;54120;53.504;49.426;2022-09-29T17:00:21;22.83;;;11.77;;
67191;SDS011;54120;53.504;49.426;2022-09-29T17:02:51;26.23;;;10.60;;
67191;SDS011;54120;53.504;49.426;2022-09-29T17:05:22;34.22;;;11.43;;
67191;SDS011;54120;53.504;49.426;2022-09-29T17:07:50;20.98;;;11.48;;
67191;SDS011;54120;53.504;49.426;2022-09-29T17:12:50;24.95;;;12.07;;
67191;SDS011;54120;53.504;49.426;2022-09-29T17:15:17;30.48;;;12.05;;
67191;SDS011;54120;53.504;49.426;2022-09-29T17:17:43;25.88;;;11.60;;
67191;SDS011;54120;53.504;49.426;2022-09-29T17:20:12;25.50;;;13.00;;
67191;SDS011;54120;53.504;49.426;2022-09-29T17:22:54;31.70;;;14.10;;
67191;SDS011;54120;53.504;49.426;2022-09-29T17:25:20;28.85;;;13.50;;
67191;SDS011;54120;53.504;49.426;2022-09-29T17:27:47;36.83;;;16.52;;
67191;SDS011;54120;53.504;49.426;2022-09-29T17:30:32;49.50;;;17.20;;
67191;SDS011;54120;53.504;49.426;2022-09-29T17:32:58;60.70;;;18.13;;
67191;SDS011;54120;53.504;49.426;2022-09-29T17:35:26;57.03;;;17.08;;
67191;SDS011;54120;53.504;49.426;2022-09-29T17:37:53;65.97;;;18.80;;
67191;SDS011;54120;53.504;49.426;2022-09-29T17:42:49;82.38;;;17.65;;
67191;SDS011;54120;53.504;49.426;2022-09-29T17:45:16;154.77;;;19.55;;
67191;SDS011;54120;53.504;49.426;2022-09-29T17:47:44;60.10;;;16.52;;
67191;SDS011;54120;53.504;49.426;2022-09-29T17:52:51;76.30;;;16.73;;
67191;SDS011;54120;53.504;49.426;2022-09-29T17:55:18;74.03;;;14.52;;
67191;SDS011;54120;53.504;49.426;2022-09-29T17:57:47;115.70;;;18.23;;
67191;SDS011;54120;53.504;49.426;2022-09-29T18:00:16;60.75;;;15.73;;
67191;SDS011;54120;53.504;49.426;2022-09-29T18:02:45;60.10;;;15.68;;
67191;SDS011;54120;53.504;49.426;2022-09-29T18:05:16;43.80;;;12.38;;
67191;SDS011;54120;53.504;49.426;2022-09-29T18:07:48;44.67;;;13.05;;
67191;SDS011;54120;53.504;49.426;2022-09-29T18:13:10;171.60;;;15.82;;
67191;SDS011;54120;53.504;49.426;2022-09-29T18:15:36;86.30;;;12.30;;
67191;SDS011;54120;53.504;49.426;2022-09-29T18:18:06;68.95;;;11.65;;
67191;SDS011;54120;53.504;49.426;2022-09-29T18:20:33;64.15;;;12.73;;
67191;SDS011;54120;53.504;49.426;2022-09-29T18:23:04;90.53;;;13.68;;
67191;SDS011;54120;53.504;49.426;2022-09-29T18:25:31;153.20;;;15.10;;
67191;SDS011;54120;53.504;49.426;2022-09-29T18:27:58;111.38;;;14.00;;
67191;SDS011;54120;53.504;49.426;2022-09-29T18:30:26;62.65;;;13.73;;
67191;SDS011;54120;53.504;49.426;2022-09-29T18:32:57;66.32;;;11.32;;
67191;SDS011;54120;53.504;49.426;2022-09-29T18:35:28;129.23;;;15.38;;
67191;SDS011;54120;53.504;49.426;2022-09-29T18:37:58;218.73;;;17.48;;